Federal Agric Mtg Corp-Cl C (AGM) Latest Bloomsberg Price


Mffais Ranking #692 Overall / #11 Industry
Industry: Mortgage Finance

Number of Companies: 63 (Ranking #2102 Overall/#35 Industry)
Inflow: $ 10,436 (K) (Ranking #1987 Overall/#27 Industry)
Outflow: $ -7,391 (K)
Mffais Flow: $ 3,044 (K) (Ranking #692 Overall/#11 Industry)


Receive a FREE weekly executive review of stocks moving into the top 10, taking the top industy spot or moving up within their industry. Sent directly to your Inbox every Saturday. Sign up today and get last week's review immediately sent to you.

We value and respect your privacy. Please read our Terms and Conditions which states our firm commitment to your privacy. Your email address will not be shared with a third party, nor will it be sold or used for purposes other than subscription for the weekly review.

Owner CPOR Shares Action Qty Chg Invested (K) Total Current Value (K)
Livforsakringsbolaget Skandia Omsesidigt 2016-09-30 45,300 Added More 41,600 $ 1,602 $ 1,745
Weybosset Research Management Llc 2016-09-30 156,752 Added More 38,902 $ 1,498 $ 6,039
Chicago Equity Partners Llc 2016-09-30 44,230 Added More 38,300 $ 1,475 $ 1,704
Bogle Investment Management L P De 2016-09-30 40,476 Added More 34,313 $ 1,322 $ 1,559
Clarivest Asset Management Llc 2016-09-30 56,349 Added More 29,049 $ 1,119 $ 2,171
Bowling Portfolio Management Llc 2016-09-30 14,575 New Holding 14,575 $ 561 $ 561
Vident Investment Advisory Llc 2016-09-30 11,848 New Holding 11,848 $ 456 $ 456
Parametric Portfolio Associates Llc 2016-09-30 39,117 Added More 8,541 $ 329 $ 1,507
Emerald Acquisition Ltd 2016-09-30 24,859 Added More 8,401 $ 323 $ 957
Kcg Holdings Inc 2016-09-30 6,547 New Holding 6,547 $ 252 $ 252
Hightower Advisors Llc 2016-09-30 5,412 New Holding 5,412 $ 208 $ 208
Algert Global Llc 2016-09-30 5,265 New Holding 5,265 $ 202 $ 202
Menta Capital Llc 2016-09-30 13,227 Added More 5,211 $ 200 $ 509
Guggenheim Capital Llc 2016-09-30 83,393 Added More 4,961 $ 191 $ 3,213
Matthew 25 Management Corp 2016-09-30 31,000 Added More 3,900 $ 150 $ 1,194
Cutler Group Lp 2016-09-30 3,500 New Holding 3,500 $ 134 $ 134
Cornerstone Capital Management Holdings Llc 2016-09-30 6,300 Added More 3,151 $ 121 $ 242
Swiss National Bank 2016-09-30 14,781 Added More 1,981 $ 76 $ 569
Northern Trust Corp 2016-09-30 93,094 Added More 1,107 $ 42 $ 3,586
Springbok Capital Management Llc 2016-09-30 1,105 New Holding 1,105 $ 42 $ 42
Fuller Thaler Asset Management Inc 2016-09-30 1,400 Added More 1,100 $ 42 $ 53
New York State Teachers Retirement System 2016-09-30 800 New Holding 800 $ 30 $ 30
Grantham Mayo Van Otterloo Co Llc 2016-09-30 6,300 Added More 300 $ 11 $ 242
Acrospire Investment Management Llc 2016-09-30 2,902 Added More 300 $ 11 $ 111
Creative Planning 2016-09-30 599 Added More 299 $ 11 $ 23
California State Teachers Retirement System 2016-09-30 18,211 Added More 200 $ 7 $ 701
Ladenburg Thalmann Financial Services Inc 2016-09-30 787 Added More 187 $ 7 $ 30
American International Group Inc 2016-09-30 4,951 Added More 7 $ 0 $ 190
Argent Capital Management Llc 2016-09-30 45,425 No Change 0 $ 0 $ 1,750
Rhumbline Advisers 2016-09-30 12,393 No Change 0 $ 0 $ 477
Bridgeway Capital Management Inc 2016-09-30 31,300 No Change 0 $ 0 $ 1,205
Nationwide Fund Advisors 2016-09-30 7,930 No Change 0 $ 0 $ 305
Pinnacle Holdings Llc 2016-09-30 400 No Change 0 $ 0 $ 15
Oshaughnessy Asset Management Llc 2016-09-30 5,360 No Change 0 $ 0 $ 206
Thompson Siegel Walmsley Llc 2016-09-30 900 No Change 0 $ 0 $ 34
Qs Investors Llc 2016-09-30 10 No Change 0 $ 0 $ 0
Teachers Advisors Inc 2016-09-30 35,825 No Change 0 $ 0 $ 1,380
Royce Associates Lp 2016-09-30 47,500 No Change 0 $ 0 $ 1,830
Ifp Advisors Inc 2016-09-30 4 No Change 0 $ 0 $ 0
Baird Financial Group Inc 2016-09-30 6,656 No Change 0 $ 0 $ 256
Investors Asset Management Of Georgia Inc Ga Adv 2016-09-30 12,900 No Change 0 $ 0 $ 497
Adams Diversified Equity Fund Inc 2016-09-30 10,300 No Change 0 $ 0 $ 396
New York State Common Retirement Fund 2016-09-30 9,200 No Change 0 $ 0 $ 354
Legal General Group Plc 2016-09-30 1,767 No Change 0 $ 0 $ 68
Hgk Asset Management Inc 2016-09-30 7,678 Sold Some -34 $ -1 $ 295
Sterling Capital Management Llc 2016-09-30 18,671 Sold Some -36 $ -1 $ 719
Usa Mutuals Advisors Inc 2016-09-30 0 Sold All -53 $ -2 $ 0
Pnc Financial Services Group Inc 2016-09-30 0 Sold All -76 $ -2 $ 0
Blackrock Investment Management Llc 2016-09-30 39,197 Sold Some -164 $ -6 $ 1,510
Hillsdale Investment Management Inc 2016-09-30 0 Sold All -250 $ -9 $ 0
Eidelman Virant Capital 2016-09-30 45,084 Sold Some -280 $ -10 $ 1,737
Dimensional Fund Advisors Lp 2016-09-30 801,541 Sold Some -606 $ -23 $ 30,883
Simplex Trading Llc 2016-09-30 0 Sold All -1,277 $ -49 $ 0
Tower Research Capital Llc Trc 2016-09-30 26 Sold Some -1,281 $ -49 $ 1
Teacher Retirement System Of Texas 2016-09-30 0 Sold All -1,324 $ -51 $ 0
Blackrock Inc 2016-09-30 36,270 Sold Some -1,381 $ -53 $ 1,397
Strs Ohio 2016-09-30 16,400 Sold Some -2,000 $ -77 $ 631
Tfs Capital Llc 2016-09-30 0 Sold All -5,814 $ -224 $ 0
Peak6 Investments L P 2016-09-30 8,329 Sold Some -9,958 $ -383 $ 320
Wedbush Securities Inc 2016-09-30 50,151 Sold Some -10,322 $ -397 $ 1,932
Deere Co 2016-09-30 0 Sold All -13,289 $ -512 $ 0
Putnam Investments Llc 2016-09-30 33,997 Sold Some -22,540 $ -868 $ 1,309
First Wilshire Securities Management Inc 2016-09-30 347,625 Sold Some -121,160 $ -4,668 $ 13,393